YPPH/PER METAR and TAF weather

Enter ICAO airport designator
Station Type Date Time Source
YPPH METAR 2020/01/23 09:00 UTC NOAA

YPPH 230900Z 23018KT CAVOK 27/16 Q1015


Station Type Date Time Source
YPPH Decoded METAR 2020/01/23 09:00 UTC NOAA

Belmont Perth Airport , Australia (YPPH) 31-56S 115-57E 29M
Jan 23, 2020 - 04:00 AM EST / 2020.01.23 0900 UTC
Wind: from the SW (230 degrees) at 21 MPH (18 KT):0
Visibility: greater than 7 mile(s):0
Temperature: 80 F (27 C)
Dew Point: 60 F (16 C)
Relative Humidity: 50%
Pressure (altimeter): 29.97 in. Hg (1015 hPa)
ob: YPPH 230900Z 23018KT CAVOK 27/16 Q1015
cycle: 9

Station Type Date Time Source
YPPH TAF 2020/01/23 06:33 UTC NOAA

TAF YPPH 230504Z 2306/2412 25016KT CAVOK
FM231000 21013KT CAVOK
FM231400 18010KT CAVOK
FM232100 11008KT CAVOK
FM240400 24014KT CAVOK

Example: see airport list